createdAt,value
2023-03-26T00:01:36.940Z,61.03
2023-03-26T00:06:34.892Z,55.20
2023-03-26T00:09:01.494Z,74.00
2023-03-26T00:11:29.219Z,59.97
2023-03-26T00:13:59.840Z,68.10
2023-03-26T00:16:31.208Z,71.30
2023-03-26T00:18:58.294Z,59.95
2023-03-26T00:21:29.235Z,77.82
2023-03-26T00:24:01.106Z,67.32
2023-03-26T00:26:29.443Z,70.22
2023-03-26T00:31:22.722Z,69.82
2023-03-26T00:33:55.447Z,73.32
2023-03-26T00:36:25.743Z,60.85
2023-03-26T00:38:53.877Z,79.93
2023-03-26T00:41:30.989Z,58.63
2023-03-26T00:43:59.110Z,70.80
2023-03-26T00:46:27.067Z,58.47
2023-03-26T00:48:54.109Z,61.65
2023-03-26T00:51:21.465Z,73.88
2023-03-26T00:53:49.258Z,69.63
2023-03-26T00:56:15.920Z,56.78
2023-03-26T00:58:42.694Z,75.30
2023-03-26T01:01:13.914Z,66.32
2023-03-26T01:03:45.699Z,64.50
2023-03-26T01:06:27.829Z,62.20
2023-03-26T01:09:00.056Z,67.70
2023-03-26T01:11:29.839Z,78.05
2023-03-26T01:14:02.160Z,90.00
2023-03-26T01:16:45.142Z,74.82
2023-03-26T01:19:26.909Z,72.70
2023-03-26T01:21:53.473Z,70.45
2023-03-26T01:24:20.759Z,67.32
2023-03-26T01:26:54.335Z,84.78
2023-03-26T01:29:36.081Z,86.05
2023-03-26T01:32:17.492Z,82.45
2023-03-26T01:37:37.172Z,83.30
2023-03-26T01:40:11.891Z,85.10
2023-03-26T01:42:49.162Z,91.75
2023-03-26T01:45:19.007Z,71.70
2023-03-26T01:47:46.483Z,76.45
2023-03-26T01:50:13.410Z,70.50
2023-03-26T01:52:40.009Z,79.82
2023-03-26T01:55:11.652Z,63.10
2023-03-26T01:57:47.410Z,61.10
2023-03-26T02:00:22.818Z,47.83
2023-03-26T02:03:17.786Z,75.95
2023-03-26T02:05:56.694Z,73.82
2023-03-26T02:08:24.592Z,59.00
2023-03-26T02:10:57.543Z,54.05
2023-03-26T02:13:25.096Z,72.25
2023-03-26T02:16:00.630Z,55.17
2023-03-26T02:18:36.398Z,63.13
2023-03-26T02:21:26.192Z,51.40
2023-03-26T02:24:03.049Z,56.47
2023-03-26T02:26:31.857Z,61.40
2023-03-26T02:28:59.078Z,76.60
2023-03-26T02:31:26.569Z,47.58
2023-03-26T02:33:55.518Z,56.67
2023-03-26T02:36:27.345Z,59.95
2023-03-26T02:38:55.731Z,69.78
2023-03-26T02:41:22.309Z,60.20
2023-03-26T02:43:49.078Z,61.08
2023-03-26T02:46:16.102Z,50.95
2023-03-26T02:48:43.943Z,58.35
2023-03-26T02:51:10.470Z,57.75
2023-03-26T02:53:37.615Z,53.85
2023-03-26T02:56:04.620Z,44.78
2023-03-26T02:58:31.174Z,52.67
2023-03-26T03:00:57.826Z,51.08
2023-03-26T03:03:26.243Z,48.92
2023-03-26T03:05:57.145Z,55.72
2023-03-26T03:08:26.421Z,50.60
2023-03-26T03:11:00.859Z,54.60
2023-03-26T03:13:28.023Z,47.28
2023-03-26T03:15:55.247Z,46.97
2023-03-26T03:18:22.402Z,47.72
2023-03-26T03:20:49.874Z,48.25
2023-03-26T03:23:16.417Z,48.53
2023-03-26T03:25:43.293Z,51.20
2023-03-26T03:28:09.860Z,47.75
2023-03-26T03:30:36.644Z,51.03
2023-03-26T03:33:03.634Z,40.35
2023-03-26T03:35:30.370Z,40.03
2023-03-26T03:37:57.999Z,52.85
2023-03-26T03:40:24.660Z,34.53
2023-03-26T03:42:51.570Z,40.80
2023-03-26T03:45:18.824Z,38.58
2023-03-26T03:47:45.451Z,42.95
2023-03-26T03:50:12.113Z,35.53
2023-03-26T03:52:38.710Z,54.30
2023-03-26T03:55:05.658Z,43.70
2023-03-26T03:57:33.236Z,38.72
2023-03-26T03:59:59.716Z,37.47
2023-03-26T04:02:30.488Z,37.03
2023-03-26T04:05:00.504Z,31.02
2023-03-26T04:07:28.355Z,47.00
2023-03-26T04:09:54.999Z,51.72
2023-03-26T04:12:21.603Z,47.28
2023-03-26T04:14:48.632Z,40.42
2023-03-26T04:17:15.410Z,40.22
2023-03-26T04:19:44.150Z,40.67
2023-03-26T04:22:11.909Z,44.50
2023-03-26T04:24:40.071Z,44.70
2023-03-26T04:27:08.917Z,44.47
2023-03-26T04:29:42.982Z,35.25
2023-03-26T04:32:14.265Z,39.05
2023-03-26T04:34:45.945Z,41.25
2023-03-26T04:37:24.774Z,41.75
2023-03-26T04:39:51.501Z,43.40
2023-03-26T04:42:20.065Z,34.85
2023-03-26T04:47:18.990Z,43.75
2023-03-26T04:49:47.368Z,44.75
2023-03-26T04:52:14.556Z,40.90
2023-03-26T04:54:43.604Z,39.65
2023-03-26T04:57:20.551Z,38.70
2023-03-26T04:59:47.270Z,39.88
2023-03-26T05:02:14.135Z,45.65
2023-03-26T05:04:40.799Z,37.45
2023-03-26T05:07:07.462Z,40.75
2023-03-26T05:09:33.998Z,36.97
2023-03-26T05:12:00.531Z,48.53
2023-03-26T05:14:27.025Z,39.67
2023-03-26T05:16:53.687Z,44.85
2023-03-26T05:19:20.198Z,48.45
2023-03-26T05:21:46.673Z,34.90
2023-03-26T05:24:13.160Z,48.72
2023-03-26T05:26:39.950Z,34.45
2023-03-26T05:29:06.534Z,55.95
2023-03-26T05:31:33.028Z,40.72
2023-03-26T05:34:02.465Z,38.22
2023-03-26T05:36:29.111Z,34.42
2023-03-26T05:38:55.615Z,50.97
2023-03-26T05:41:22.091Z,43.53
2023-03-26T05:43:49.030Z,42.78
2023-03-26T05:46:16.169Z,46.80
2023-03-26T05:48:42.866Z,49.70
2023-03-26T05:51:09.578Z,44.28
2023-03-26T05:53:36.417Z,34.55
2023-03-26T05:56:04.209Z,49.35
2023-03-26T05:58:33.384Z,53.20
2023-03-26T06:01:08.657Z,43.35
2023-03-26T06:03:39.728Z,43.83
2023-03-26T06:06:08.360Z,44.92
2023-03-26T06:08:34.867Z,40.78
2023-03-26T06:11:03.292Z,54.97
2023-03-26T06:13:29.982Z,42.08
2023-03-26T06:15:58.279Z,42.17
2023-03-26T06:18:26.159Z,41.33
2023-03-26T06:20:53.331Z,39.33
2023-03-26T06:23:20.334Z,40.70
2023-03-26T06:25:47.797Z,41.45
2023-03-26T06:28:15.311Z,38.13
2023-03-26T06:30:42.106Z,35.00
2023-03-26T06:33:08.870Z,39.25
2023-03-26T06:35:35.616Z,37.53
2023-03-26T06:38:02.661Z,31.30
2023-03-26T06:40:29.340Z,36.13
2023-03-26T06:43:09.008Z,50.45
2023-03-26T06:48:04.557Z,39.00
2023-03-26T06:50:32.256Z,41.72
2023-03-26T06:52:58.786Z,32.72
2023-03-26T06:55:26.253Z,31.20
2023-03-26T06:57:54.128Z,34.88
2023-03-26T07:00:21.339Z,31.05
2023-03-26T07:02:47.945Z,34.47
2023-03-26T07:05:14.908Z,26.17
2023-03-26T07:07:46.396Z,29.30
2023-03-26T07:10:13.850Z,28.95
2023-03-26T07:12:41.624Z,33.08
2023-03-26T07:15:09.408Z,31.52
2023-03-26T07:17:36.072Z,28.50
2023-03-26T07:20:02.977Z,19.40
2023-03-26T07:22:29.769Z,22.00
2023-03-26T07:24:56.748Z,22.98
2023-03-26T07:27:36.018Z,18.90
2023-03-26T07:30:14.331Z,24.05
2023-03-26T07:32:47.753Z,18.40
2023-03-26T07:35:29.557Z,18.17
2023-03-26T07:38:30.439Z,14.13
2023-03-26T07:41:05.888Z,23.75
2023-03-26T07:43:41.403Z,20.20
2023-03-26T07:46:13.325Z,20.80
2023-03-26T07:48:41.659Z,18.05
2023-03-26T07:51:09.205Z,19.38
2023-03-26T07:53:36.083Z,25.17
2023-03-26T07:56:15.931Z,29.25
2023-03-26T07:59:11.900Z,25.05
2023-03-26T08:01:56.786Z,26.27
2023-03-26T08:04:56.122Z,26.20
2023-03-26T08:07:32.642Z,31.17
2023-03-26T08:10:21.059Z,29.70
2023-03-26T08:13:02.762Z,26.38
2023-03-26T08:15:39.715Z,25.10
2023-03-26T08:18:27.749Z,22.33
2023-03-26T08:20:59.983Z,28.58
2023-03-26T08:23:32.733Z,26.88
2023-03-26T08:26:30.632Z,27.13
2023-03-26T08:28:59.317Z,30.90
2023-03-26T08:31:33.789Z,27.65
2023-03-26T08:34:00.907Z,28.05
2023-03-26T08:36:27.944Z,28.40
2023-03-26T08:38:54.506Z,24.08
2023-03-26T08:41:39.154Z,29.48
2023-03-26T08:44:27.196Z,26.63
2023-03-26T08:47:08.803Z,23.33
2023-03-26T08:50:08.588Z,26.13
2023-03-26T08:52:43.036Z,24.40
2023-03-26T08:55:33.122Z,27.70
2023-03-26T08:58:18.803Z,21.02
2023-03-26T09:01:24.432Z,19.98
2023-03-26T09:04:03.084Z,16.98
2023-03-26T09:06:58.922Z,18.65
2023-03-26T09:09:54.599Z,16.30
2023-03-26T09:12:53.747Z,17.60
2023-03-26T09:15:39.555Z,13.10
2023-03-26T09:18:35.324Z,18.73
2023-03-26T09:21:22.270Z,20.55
2023-03-26T09:24:09.765Z,20.48
2023-03-26T09:26:55.035Z,23.73
2023-03-26T09:29:49.500Z,15.30
2023-03-26T09:32:34.086Z,17.73
2023-03-26T09:35:13.084Z,13.13
2023-03-26T09:38:10.663Z,13.48
2023-03-26T09:41:01.190Z,12.52
2023-03-26T09:43:57.303Z,17.25
2023-03-26T09:46:29.816Z,16.40
2023-03-26T09:48:59.465Z,20.58
2023-03-26T09:51:29.919Z,15.68
2023-03-26T09:54:04.493Z,12.50
2023-03-26T09:56:42.833Z,15.38
2023-03-26T09:59:38.906Z,15.40
2023-03-26T10:02:46.314Z,18.27
2023-03-26T10:05:49.728Z,13.43
2023-03-26T10:08:44.366Z,14.82
2023-03-26T10:11:19.922Z,15.63
2023-03-26T10:14:13.828Z,14.18
2023-03-26T10:17:16.734Z,17.83
2023-03-26T10:19:46.041Z,16.85
2023-03-26T10:22:24.739Z,14.95
2023-03-26T10:25:13.181Z,14.85
2023-03-26T10:27:52.433Z,15.07
2023-03-26T10:30:39.450Z,16.77
2023-03-26T10:33:31.757Z,18.98
2023-03-26T10:36:10.598Z,22.77
2023-03-26T10:39:09.179Z,24.08
2023-03-26T10:41:54.014Z,22.33
2023-03-26T10:44:26.467Z,21.27
2023-03-26T10:46:59.728Z,20.83
2023-03-26T10:49:49.880Z,22.83
2023-03-26T10:52:21.596Z,19.20
2023-03-26T10:55:12.049Z,24.60
2023-03-26T10:57:44.360Z,25.02
2023-03-26T11:00:16.814Z,23.60
2023-03-26T11:03:24.786Z,25.83
2023-03-26T11:05:58.243Z,20.42
2023-03-26T11:08:36.994Z,20.40
2023-03-26T11:11:19.443Z,21.95
2023-03-26T11:13:55.066Z,24.45
2023-03-26T11:16:47.488Z,18.00
2023-03-26T11:19:24.310Z,26.23
2023-03-26T11:21:56.906Z,17.00
2023-03-26T11:25:14.876Z,17.55
2023-03-26T11:28:14.019Z,21.85
2023-03-26T11:30:59.435Z,21.65
2023-03-26T11:33:32.569Z,22.25
2023-03-26T11:36:05.169Z,26.30
2023-03-26T11:38:42.231Z,21.48
2023-03-26T11:41:22.728Z,23.90
2023-03-26T11:44:12.858Z,19.02
2023-03-26T11:46:43.432Z,18.73
2023-03-26T11:49:12.776Z,19.27
2023-03-26T11:51:41.051Z,28.85
2023-03-26T11:54:10.814Z,20.88
2023-03-26T11:57:07.012Z,23.23
2023-03-26T11:59:53.051Z,25.83
2023-03-26T12:02:34.454Z,24.77
2023-03-26T12:05:21.926Z,28.60
2023-03-26T12:08:16.679Z,29.80
2023-03-26T12:10:43.343Z,28.95
2023-03-26T12:13:29.641Z,25.83
2023-03-26T12:16:04.990Z,22.98
2023-03-26T12:18:32.172Z,25.30
2023-03-26T12:21:08.498Z,32.13
2023-03-26T12:23:45.844Z,27.58
2023-03-26T12:26:18.293Z,21.63
2023-03-26T12:28:49.680Z,25.58
2023-03-26T12:31:19.128Z,23.65
2023-03-26T12:34:07.532Z,24.15
2023-03-26T12:36:35.998Z,24.40
2023-03-26T12:44:43.870Z,22.75
2023-03-26T12:44:59.269Z,22.15
2023-03-26T12:47:59.995Z,25.55
2023-03-26T12:50:34.698Z,22.92
2023-03-26T12:53:18.020Z,21.23
2023-03-26T12:56:01.877Z,25.20
2023-03-26T12:59:14.162Z,32.88
2023-03-26T13:01:52.802Z,21.48
2023-03-26T13:04:34.094Z,27.88
2023-03-26T13:07:25.719Z,25.90
2023-03-26T13:10:23.490Z,19.75
2023-03-26T13:12:52.689Z,33.75
2023-03-26T13:15:31.349Z,25.02
2023-03-26T13:18:22.028Z,21.90
2023-03-26T13:21:28.635Z,21.27
2023-03-26T13:24:22.795Z,25.85
2023-03-26T13:29:56.497Z,26.65
2023-03-26T13:32:33.869Z,16.77
2023-03-26T13:35:24.775Z,25.83
2023-03-26T13:38:15.583Z,19.77
2023-03-26T13:41:07.065Z,21.13
2023-03-26T13:43:47.009Z,26.05
2023-03-26T13:46:35.498Z,25.75
2023-03-26T13:49:06.284Z,19.15
2023-03-26T13:51:47.885Z,22.23
2023-03-26T13:54:26.525Z,18.92
2023-03-26T13:57:09.512Z,20.65
2023-03-26T13:59:46.615Z,22.33
2023-03-26T14:02:29.751Z,16.02
2023-03-26T14:05:01.380Z,18.92
2023-03-26T14:07:36.114Z,25.33
2023-03-26T14:10:12.820Z,16.88
2023-03-26T14:12:59.765Z,16.40
2023-03-26T14:15:41.476Z,21.13
2023-03-26T14:18:23.217Z,22.15
2023-03-26T14:21:08.869Z,18.08
2023-03-26T14:24:00.607Z,16.52
2023-03-26T14:26:49.047Z,12.95
2023-03-26T14:29:31.104Z,14.18
2023-03-26T14:32:29.699Z,13.20
2023-03-26T14:35:42.190Z,18.80
2023-03-26T14:38:42.732Z,20.83
2023-03-26T14:44:48.488Z,12.32
2023-03-26T14:47:21.316Z,12.52
2023-03-26T14:50:20.330Z,18.58
2023-03-26T14:53:00.823Z,22.50
2023-03-26T14:55:49.847Z,14.48
2023-03-26T14:58:48.055Z,14.45
2023-03-26T15:01:25.367Z,18.63
2023-03-26T15:04:24.468Z,19.23
2023-03-26T15:06:50.948Z,23.92
2023-03-26T15:09:29.486Z,15.02
2023-03-26T15:12:15.640Z,22.15
2023-03-26T15:14:57.331Z,12.85
2023-03-26T15:17:43.607Z,22.63
2023-03-26T15:20:35.217Z,14.75
2023-03-26T15:23:20.612Z,25.75
2023-03-26T15:26:09.924Z,11.38
2023-03-26T15:28:57.137Z,19.92
2023-03-26T15:31:54.595Z,13.65
2023-03-26T15:34:34.070Z,20.23
2023-03-26T15:37:21.727Z,17.35
2023-03-26T15:40:09.725Z,18.23
2023-03-26T15:42:47.172Z,15.75
2023-03-26T15:45:22.886Z,23.35
2023-03-26T15:48:34.846Z,16.98
2023-03-26T15:51:03.913Z,16.42
2023-03-26T15:53:51.964Z,22.58
2023-03-26T15:56:43.606Z,21.48
2023-03-26T15:59:47.858Z,16.98
2023-03-26T16:02:38.960Z,21.55
2023-03-26T16:05:25.256Z,12.75
2023-03-26T16:08:09.218Z,14.07
2023-03-26T16:10:44.591Z,16.00
2023-03-26T16:13:37.805Z,16.40
2023-03-26T16:16:04.342Z,15.35
2023-03-26T16:18:51.052Z,11.82
2023-03-26T16:21:34.593Z,15.45
2023-03-26T16:24:07.485Z,19.23
2023-03-26T16:26:53.101Z,14.07
2023-03-26T16:29:26.052Z,17.85
2023-03-26T16:32:11.227Z,17.73
2023-03-26T16:34:53.070Z,14.13
2023-03-26T16:37:40.052Z,23.63
2023-03-26T16:40:20.426Z,23.23
2023-03-26T16:43:09.924Z,13.70
2023-03-26T16:45:45.967Z,12.50
2023-03-26T16:48:15.529Z,9.93
2023-03-26T16:51:03.793Z,15.43
2023-03-26T16:53:41.772Z,15.07
2023-03-26T16:56:22.333Z,13.57
2023-03-26T16:58:58.723Z,11.63
2023-03-26T17:01:35.811Z,17.80
2023-03-26T17:04:24.816Z,14.63
2023-03-26T17:06:56.654Z,9.40
2023-03-26T17:09:33.945Z,9.15
2023-03-26T17:12:19.310Z,12.10
2023-03-26T17:14:54.521Z,10.98
2023-03-26T17:17:30.641Z,10.43
2023-03-26T17:20:33.265Z,17.05
2023-03-26T17:23:18.836Z,13.80
2023-03-26T17:26:04.247Z,13.45
2023-03-26T17:28:35.317Z,12.18
2023-03-26T17:31:10.906Z,15.00
2023-03-26T17:33:39.173Z,13.93
2023-03-26T17:38:45.507Z,17.60
2023-03-26T17:41:15.403Z,20.20
2023-03-26T17:43:50.244Z,10.18
2023-03-26T17:46:34.838Z,11.20
2023-03-26T17:49:18.590Z,16.52
2023-03-26T17:51:50.375Z,11.82
2023-03-26T17:54:24.521Z,14.90
2023-03-26T17:56:53.154Z,13.90
2023-03-26T17:59:23.527Z,13.63
2023-03-26T18:01:55.881Z,8.38
2023-03-26T18:04:38.300Z,10.15
2023-03-26T18:07:20.259Z,10.80
2023-03-26T18:09:50.162Z,15.13
2023-03-26T18:12:34.698Z,11.40
2023-03-26T18:15:11.925Z,23.85
2023-03-26T18:17:46.219Z,20.27
2023-03-26T18:20:24.697Z,8.38
2023-03-26T18:22:51.848Z,18.75
2023-03-26T18:25:35.097Z,19.50
2023-03-26T18:28:02.443Z,15.20
2023-03-26T18:30:29.380Z,12.10
2023-03-26T18:33:12.863Z,14.07
2023-03-26T18:35:54.486Z,18.92
2023-03-26T18:38:35.642Z,12.50
2023-03-26T18:41:06.778Z,18.73
2023-03-26T18:43:35.266Z,17.73
2023-03-26T18:46:03.604Z,18.58
2023-03-26T18:48:30.299Z,15.35
2023-03-26T18:51:07.164Z,15.20
2023-03-26T18:54:00.356Z,14.00
2023-03-26T18:56:30.091Z,15.18
2023-03-26T18:58:59.252Z,14.65
2023-03-26T19:01:31.182Z,15.48
2023-03-26T19:04:05.206Z,15.75
2023-03-26T19:06:36.048Z,10.20
2023-03-26T19:09:23.716Z,17.17
2023-03-26T19:11:59.330Z,20.75
2023-03-26T19:14:27.551Z,18.02
2023-03-26T19:16:58.987Z,12.55
2023-03-26T19:19:31.464Z,18.10
2023-03-26T19:21:59.504Z,15.95
2023-03-26T19:24:27.033Z,28.60
2023-03-26T19:26:53.646Z,17.35
2023-03-26T19:29:25.876Z,23.67
2023-03-26T19:31:52.774Z,16.17
2023-03-26T19:34:32.312Z,13.65
2023-03-26T19:37:01.124Z,22.23
2023-03-26T19:39:41.578Z,21.33
2023-03-26T19:42:13.500Z,16.80
2023-03-26T19:44:41.070Z,20.55
2023-03-26T19:47:29.301Z,21.20
2023-03-26T19:50:26.039Z,14.15
2023-03-26T19:53:18.850Z,9.98
2023-03-26T19:55:58.838Z,14.98
2023-03-26T19:58:26.839Z,12.32
2023-03-26T20:00:56.009Z,14.52
2023-03-26T20:03:38.149Z,16.63
2023-03-26T20:06:04.954Z,12.75
2023-03-26T20:08:32.074Z,24.80
2023-03-26T20:10:59.195Z,14.82
2023-03-26T20:13:26.272Z,15.38
2023-03-26T20:16:07.197Z,12.75
2023-03-26T20:18:34.931Z,12.77
2023-03-26T20:21:01.628Z,14.75
2023-03-26T20:23:28.975Z,12.73
2023-03-26T20:25:56.457Z,12.65
2023-03-26T20:28:24.469Z,12.63
2023-03-26T20:30:54.355Z,14.75
2023-03-26T20:33:27.776Z,13.90
2023-03-26T20:35:55.809Z,16.17
2023-03-26T20:38:36.691Z,7.53
2023-03-26T20:41:07.034Z,18.20
2023-03-26T20:43:33.658Z,12.82
2023-03-26T20:46:00.679Z,12.05
2023-03-26T20:48:27.233Z,18.92
2023-03-26T20:50:54.156Z,22.88
2023-03-26T20:53:20.975Z,12.43
2023-03-26T20:55:49.256Z,11.13
2023-03-26T20:58:31.741Z,9.65
2023-03-26T21:01:02.232Z,16.75
2023-03-26T21:03:29.038Z,9.07
2023-03-26T21:06:00.000Z,7.80
2023-03-26T21:08:30.195Z,11.55
2023-03-26T21:11:01.976Z,13.30
2023-03-26T21:13:43.656Z,11.07
2023-03-26T21:16:12.087Z,15.68
2023-03-26T21:18:39.681Z,16.30
2023-03-26T21:21:24.464Z,14.02
2023-03-26T21:24:19.628Z,9.68
2023-03-26T21:27:28.568Z,13.57
2023-03-26T21:29:56.108Z,16.02
2023-03-26T21:32:23.296Z,9.82
2023-03-26T21:34:58.699Z,9.38
2023-03-26T21:37:27.035Z,19.55
2023-03-26T21:39:53.847Z,19.13
2023-03-26T21:42:20.962Z,11.57
2023-03-26T21:44:47.802Z,13.25
2023-03-26T21:47:14.882Z,20.50
2023-03-26T21:49:41.718Z,14.68
2023-03-26T21:52:14.644Z,15.38
2023-03-26T21:54:43.323Z,9.68
2023-03-26T21:57:12.743Z,9.85
2023-03-26T21:59:47.984Z,10.35
2023-03-26T22:05:06.047Z,10.55
2023-03-26T22:07:37.799Z,15.20
2023-03-26T22:10:05.394Z,7.07
2023-03-26T22:12:31.919Z,11.27
2023-03-26T22:14:58.753Z,9.32
2023-03-26T22:17:25.262Z,11.30
2023-03-26T22:19:51.836Z,8.63
2023-03-26T22:22:18.364Z,10.98
2023-03-26T22:24:45.181Z,13.68
2023-03-26T22:27:13.134Z,14.35
2023-03-26T22:29:39.905Z,9.65
2023-03-26T22:32:06.545Z,9.02
2023-03-26T22:34:34.990Z,14.48
2023-03-26T22:37:01.562Z,8.52
2023-03-26T22:39:28.758Z,7.78
2023-03-26T22:41:55.470Z,6.60
2023-03-26T22:44:21.980Z,11.20
2023-03-26T22:46:51.409Z,13.57
2023-03-26T22:49:18.411Z,14.13
2023-03-26T22:51:44.932Z,7.70
2023-03-26T22:54:11.476Z,8.93
2023-03-26T22:56:38.045Z,12.07
2023-03-26T22:59:04.722Z,12.90
2023-03-26T23:01:31.337Z,11.52
2023-03-26T23:03:58.269Z,17.33
2023-03-26T23:06:25.186Z,14.38
2023-03-26T23:08:51.996Z,15.38
2023-03-26T23:11:19.914Z,12.23
2023-03-26T23:13:47.438Z,17.60
2023-03-26T23:16:15.615Z,14.77
2023-03-26T23:18:42.845Z,17.65
2023-03-26T23:21:18.134Z,30.02
2023-03-26T23:23:45.026Z,14.35
2023-03-26T23:26:11.524Z,12.68
2023-03-26T23:28:38.375Z,20.08
2023-03-26T23:31:06.930Z,16.33
2023-03-26T23:33:35.868Z,8.93
2023-03-26T23:36:08.969Z,8.68
2023-03-26T23:38:43.755Z,11.07
2023-03-26T23:41:15.282Z,13.93
2023-03-26T23:43:53.521Z,9.50
2023-03-26T23:46:26.346Z,10.23
2023-03-26T23:48:53.363Z,14.23
2023-03-26T23:51:20.628Z,16.48
2023-03-26T23:53:48.004Z,15.43
2023-03-26T23:56:15.283Z,12.65
2023-03-26T23:58:41.931Z,7.72
